Time;durP1;ratioP1;P1;durP2;ratioP2;P2;SDS_P1;SDS_P2;PMS_P1;PMS_P2;Temp;Humidity;BMP_temperature;BMP_pressure;BME280_temperature;BME280_humidity;BME280_pressure;Samples;Min_cycle;Max_cycle;Signal;HPM_P1;HPM_P2
2021/11/28 00:00:05;;;;;;;15.52;7.97;;;;;;;5.13;84.79;97232.22;5031007;28;20540;-74
2021/11/28 00:02:34;;;;;;;15.93;10.07;;;;;;;5.15;84.25;97227.63;5023570;28;20266;-74
2021/11/28 00:05:02;;;;;;;10.27;7.63;;;;;;;5.33;83.11;97226.25;5030665;28;20187;-73
2021/11/28 00:07:43;;;;;;;16.42;10.23;;;;;;;5.38;82.49;97224.13;5023701;28;20755;-73
2021/11/28 00:10:14;;;;;;;10.18;7.93;;;;;;;5.39;82.17;97212.47;5031148;28;20541;-73
2021/11/28 00:12:44;;;;;;;9.63;6.88;;;;;;;5.18;82.38;97217.59;5030613;28;20273;-75
2021/11/28 00:15:15;;;;;;;13.70;7.80;;;;;;;5.06;82.90;97218.50;5032495;28;20203;-75
2021/11/28 00:17:42;;;;;;;10.88;7.35;;;;;;;5.21;82.76;97211.19;5034643;28;20221;-75
2021/11/28 00:20:11;;;;;;;10.68;6.40;;;;;;;5.07;82.05;97222.88;5033163;28;20230;-75
2021/11/28 00:22:39;;;;;;;11.18;7.70;;;;;;;5.07;82.24;97219.38;5035322;28;20202;-74
2021/11/28 00:25:07;;;;;;;11.98;6.68;;;;;;;4.93;82.42;97212.34;5034935;28;20681;-74
2021/11/28 00:27:33;;;;;;;16.67;8.05;;;;;;;4.95;83.19;97207.75;5034787;28;20234;-75
2021/11/28 00:30:01;;;;;;;11.15;6.07;;;;;;;5.03;82.91;97204.56;5034682;28;20599;-73
2021/11/28 00:32:29;;;;;;;11.85;6.35;;;;;;;4.71;83.71;97208.59;5034764;28;20233;-74
2021/11/28 00:34:56;;;;;;;9.27;5.70;;;;;;;4.61;83.88;97210.22;5033798;28;20201;-76
2021/11/28 00:37:23;;;;;;;8.07;5.60;;;;;;;4.75;83.86;97210.09;5034288;28;20277;-74
2021/11/28 00:39:49;;;;;;;18.17;9.38;;;;;;;4.65;84.81;97216.19;5034933;28;20309;-73
2021/11/28 00:42:16;;;;;;;10.60;5.18;;;;;;;4.82;83.24;97223.81;5034555;28;20187;-75
2021/11/28 00:44:43;;;;;;;9.15;5.20;;;;;;;4.85;83.57;97222.75;5034179;28;20365;-74
2021/11/28 00:47:11;;;;;;;11.43;6.40;;;;;;;4.79;83.18;97224.91;5034337;28;20699;-75
2021/11/28 00:49:49;;;;;;;6.38;5.20;;;;;;;4.81;83.05;97222.09;5034615;28;20236;-75
2021/11/28 00:52:16;;;;;;;9.05;6.00;;;;;;;4.83;82.74;97220.19;5026650;28;20198;-74
2021/11/28 00:54:42;;;;;;;11.23;6.75;;;;;;;4.86;83.24;97221.78;5034004;28;20222;-75
2021/11/28 00:57:09;;;;;;;6.90;4.30;;;;;;;4.83;81.97;97222.84;5033914;28;20186;-75
2021/11/28 00:59:36;;;;;;;9.93;5.50;;;;;;;4.96;82.54;97220.16;5034141;28;20241;-74
2021/11/28 01:02:03;;;;;;;7.97;4.10;;;;;;;5.17;80.33;97223.88;5034362;28;20296;-73
2021/11/28 01:04:30;;;;;;;8.15;4.40;;;;;;;5.27;79.95;97225.88;5034287;28;20514;-75
2021/11/28 01:06:58;;;;;;;8.50;5.22;;;;;;;5.08;80.56;97235.25;5033943;28;20677;-74
2021/11/28 01:09:24;;;;;;;4.82;3.65;;;;;;;4.99;80.52;97230.59;5032378;28;20680;-75
2021/11/28 01:11:51;;;;;;;8.50;5.00;;;;;;;4.93;81.44;97241.69;5032644;28;20341;-73
2021/11/28 01:14:18;;;;;;;4.22;3.67;;;;;;;5.11;81.32;97239.50;5032936;28;20229;-73
2021/11/28 01:16:44;;;;;;;13.80;4.68;;;;;;;5.09;81.66;97238.75;5032688;28;20231;-74
2021/11/28 01:19:11;;;;;;;5.28;3.72;;;;;;;5.18;81.05;97240.78;5032731;28;20286;-74
2021/11/28 01:21:38;;;;;;;6.85;4.88;;;;;;;5.15;80.98;97238.31;5032597;28;20226;-74
2021/11/28 01:24:06;;;;;;;4.82;4.40;;;;;;;5.26;80.37;97240.19;5032018;28;20201;-75
2021/11/28 01:26:33;;;;;;;5.07;3.80;;;;;;;5.25;81.03;97241.16;5032016;28;20274;-74
2021/11/28 01:28:59;;;;;;;7.53;3.92;;;;;;;5.44;79.39;97244.16;5031860;28;20302;-74
2021/11/28 01:31:26;;;;;;;7.85;4.10;;;;;;;5.29;78.97;97239.94;5032616;28;20282;-75
2021/11/28 01:33:53;;;;;;;9.85;6.13;;;;;;;5.23;79.45;97242.13;5032517;28;20222;-74
2021/11/28 01:36:20;;;;;;;8.20;5.15;;;;;;;4.83;80.60;97238.84;5032717;28;20714;-74
2021/11/28 01:38:46;;;;;;;12.10;5.90;;;;;;;4.68;82.07;97251.47;5032650;28;20274;-76
2021/11/28 01:41:14;;;;;;;6.82;4.35;;;;;;;4.64;82.91;97260.66;5032204;28;20264;-73
2021/11/28 01:43:41;;;;;;;9.82;5.68;;;;;;;4.81;82.30;97252.28;5032208;28;20293;-75
2021/11/28 01:46:08;;;;;;;7.75;5.22;;;;;;;4.86;81.88;97251.97;5032502;28;20602;-74
2021/11/28 01:48:35;;;;;;;6.35;3.92;;;;;;;5.03;81.13;97250.72;5031788;28;20297;-73
2021/11/28 01:51:03;;;;;;;6.30;3.65;;;;;;;5.08;81.11;97253.06;5032265;28;20195;-75
2021/11/28 01:53:30;;;;;;;7.20;3.80;;;;;;;5.10;79.87;97249.31;5032115;28;20277;-75
2021/11/28 01:55:58;;;;;;;8.95;6.72;;;;;;;5.19;79.54;97256.63;5031103;28;20226;-74
2021/11/28 01:58:27;;;;;;;6.30;4.82;;;;;;;5.17;80.65;97250.56;5032239;28;20271;-74
2021/11/28 02:00:58;;;;;;;6.20;3.78;;;;;;;5.41;79.18;97244.38;5032148;28;20187;-75
2021/11/28 02:03:26;;;;;;;5.20;3.58;;;;;;;5.38;78.28;97244.59;5031919;28;20277;-73
2021/11/28 02:05:55;;;;;;;6.22;4.60;;;;;;;5.26;79.08;97256.19;5032044;28;20593;-74
2021/11/28 02:08:22;;;;;;;4.90;3.77;;;;;;;5.31;79.66;97240.69;4993333;28;1121549;-75
2021/11/28 02:10:49;;;;;;;5.32;4.43;;;;;;;5.33;79.21;97236.94;5032861;28;20274;-75
2021/11/28 02:13:18;;;;;;;5.20;3.45;;;;;;;5.06;79.11;97239.84;5033004;28;20576;-75
2021/11/28 02:15:47;;;;;;;13.02;6.90;;;;;;;4.97;80.66;97256.50;5032812;28;20704;-74
2021/11/28 02:18:13;;;;;;;5.85;4.05;;;;;;;4.92;81.38;97246.19;5032922;28;20305;-74
2021/11/28 02:20:44;;;;;;;10.00;5.45;;;;;;;5.21;80.39;97257.38;5032822;28;20237;-74
2021/11/28 02:23:10;;;;;;;6.15;3.78;;;;;;;5.29;79.42;97264.84;5032763;28;20193;-75
2021/11/28 02:25:37;;;;;;;8.05;4.88;;;;;;;5.30;79.94;97255.00;5032930;28;20233;-74
2021/11/28 02:28:04;;;;;;;7.57;4.72;;;;;;;5.29;80.36;97259.50;5032399;28;20219;-74
2021/11/28 02:30:31;;;;;;;6.25;4.57;;;;;;;5.28;80.79;97260.44;5032483;28;20234;-73
2021/11/28 02:32:58;;;;;;;9.38;5.20;;;;;;;5.37;80.84;97249.09;5032900;28;20269;-74
2021/11/28 02:35:27;;;;;;;7.65;4.93;;;;;;;5.27;80.65;97258.75;5031602;28;20214;-75
2021/11/28 02:37:55;;;;;;;6.30;4.90;;;;;;;5.34;80.92;97261.81;5031195;28;20233;-74
2021/11/28 02:40:24;;;;;;;5.00;4.05;;;;;;;5.21;81.24;97260.06;5032588;28;20241;-75
2021/11/28 02:42:52;;;;;;;4.97;3.83;;;;;;;5.40;79.17;97253.34;5031892;28;20218;-75
2021/11/28 02:45:20;;;;;;;6.13;3.95;;;;;;;5.31;79.62;97257.53;5032309;28;20270;-73
2021/11/28 02:47:47;;;;;;;3.85;3.45;;;;;;;5.21;80.34;97254.72;5031754;28;20361;-74
2021/11/28 02:50:16;;;;;;;4.57;3.88;;;;;;;5.35;79.71;97250.19;5031934;28;20277;-74
2021/11/28 02:52:46;;;;;;;6.32;4.57;;;;;;;5.20;80.05;97254.81;5025170;28;20604;-74
2021/11/28 02:55:14;;;;;;;5.63;4.70;;;;;;;5.38;79.73;97247.28;5031789;28;20278;-74
2021/11/28 02:57:41;;;;;;;7.50;4.80;;;;;;;5.39;79.82;97243.66;5024481;28;20225;-73
2021/11/28 03:00:08;;;;;;;6.80;4.40;;;;;;;5.44;79.70;97247.66;5031246;28;20277;-74
2021/11/28 03:02:37;;;;;;;6.35;4.28;;;;;;;5.24;80.79;97253.63;5031380;28;20273;-73
2021/11/28 03:05:05;;;;;;;3.92;3.53;;;;;;;5.28;80.49;97249.78;5031806;28;20273;-75
2021/11/28 03:07:31;;;;;;;5.28;4.15;;;;;;;5.19;80.85;97245.97;5031279;28;20305;-74
2021/11/28 03:09:58;;;;;;;8.93;4.63;;;;;;;5.19;80.85;97255.78;5031801;28;20241;-75
2021/11/28 03:12:26;;;;;;;6.60;4.45;;;;;;;5.12;81.42;97250.06;5031609;28;20281;-74
2021/11/28 03:14:53;;;;;;;6.30;4.15;;;;;;;5.15;80.79;97249.81;5032005;28;20233;-75
2021/11/28 03:17:19;;;;;;;6.82;4.55;;;;;;;5.16;80.64;97250.69;5031648;28;20270;-74
2021/11/28 03:19:47;;;;;;;6.50;4.35;;;;;;;4.96;81.61;97255.66;5031916;28;20622;-74
2021/11/28 03:22:14;;;;;;;7.72;4.22;;;;;;;4.76;82.87;97259.75;5031273;28;20230;-73
2021/11/28 03:24:41;;;;;;;5.45;4.00;;;;;;;5.08;82.13;97256.56;5031483;28;20683;-73
2021/11/28 03:27:08;;;;;;;5.90;4.30;;;;;;;4.86;82.60;97261.75;5031212;28;20226;-74
2021/11/28 03:29:36;;;;;;;5.65;5.05;;;;;;;4.95;82.68;97267.31;5031686;28;20305;-75
2021/11/28 03:32:02;;;;;;;5.78;4.85;;;;;;;4.75;83.11;97265.22;5030541;28;20278;-74
2021/11/28 03:34:29;;;;;;;5.95;5.25;;;;;;;4.83;82.91;97270.84;5023932;28;20274;-74
2021/11/28 03:36:59;;;;;;;7.60;4.90;;;;;;;4.77;82.91;97266.81;5031385;28;20271;-74
2021/11/28 03:39:29;;;;;;;6.45;4.80;;;;;;;4.93;83.03;97271.91;5031133;28;20618;-73
2021/11/28 03:42:00;;;;;;;5.68;4.25;;;;;;;4.91;83.07;97267.63;5031617;28;20278;-74
2021/11/28 03:44:29;;;;;;;8.00;5.25;;;;;;;4.79;83.09;97264.03;5031186;28;20278;-75
2021/11/28 03:46:58;;;;;;;8.25;5.78;;;;;;;4.72;83.11;97268.94;5031391;28;20656;-74
2021/11/28 03:49:25;;;;;;;7.10;5.07;;;;;;;4.59;84.07;97273.47;5023933;28;20605;-75
2021/11/28 03:51:52;;;;;;;5.30;4.78;;;;;;;4.60;85.12;97275.16;5031508;28;20210;-73
2021/11/28 03:54:19;;;;;;;6.05;5.07;;;;;;;4.64;84.65;97273.97;5018109;28;20215;-75
2021/11/28 03:56:45;;;;;;;11.07;6.63;;;;;;;4.59;83.96;97265.47;5031174;28;20289;-73
2021/11/28 03:59:12;;;;;;;7.60;5.97;;;;;;;4.53;84.80;97263.22;5030779;28;20186;-74
2021/11/28 04:01:39;;;;;;;4.88;4.40;;;;;;;4.70;84.39;97278.84;5031249;28;20607;-74
2021/11/28 04:04:07;;;;;;;7.75;4.90;;;;;;;4.70;83.81;97270.84;5031291;28;20552;-73
2021/11/28 04:06:34;;;;;;;5.13;4.63;;;;;;;4.57;83.85;97270.06;5030743;28;20690;-74
2021/11/28 04:09:01;;;;;;;5.32;4.82;;;;;;;4.52;84.41;97264.16;5030730;28;20719;-75
2021/11/28 04:11:27;;;;;;;5.75;4.30;;;;;;;4.67;84.05;97271.09;5031253;28;20708;-74
2021/11/28 04:13:54;;;;;;;5.70;4.55;;;;;;;4.71;83.62;97275.25;5030935;28;20680;-75
2021/11/28 04:16:20;;;;;;;6.20;4.53;;;;;;;4.73;83.41;97281.31;5031017;28;20226;-74
2021/11/28 04:18:47;;;;;;;6.82;5.30;;;;;;;4.62;84.59;97278.56;5030762;28;20286;-74
2021/11/28 04:21:15;;;;;;;6.57;3.95;;;;;;;4.77;83.49;97281.94;5030932;28;20273;-75
2021/11/28 04:23:42;;;;;;;6.35;4.57;;;;;;;4.78;83.07;97275.66;5030300;28;20226;-74
2021/11/28 04:26:09;;;;;;;5.75;4.10;;;;;;;4.74;84.33;97272.34;5030459;28;20282;-75
2021/11/28 04:28:35;;;;;;;6.97;4.75;;;;;;;4.75;84.20;97273.22;5030570;28;20301;-75
2021/11/28 04:31:02;;;;;;;4.97;4.47;;;;;;;4.71;83.21;97271.72;5030576;28;20281;-74
2021/11/28 04:33:29;;;;;;;6.20;4.88;;;;;;;4.79;83.59;97278.22;5031013;28;20701;-74
2021/11/28 04:35:56;;;;;;;5.30;4.32;;;;;;;4.72;83.72;97274.25;5030616;28;20199;-74
2021/11/28 04:38:24;;;;;;;4.60;4.20;;;;;;;4.76;83.33;97270.44;5030591;28;20294;-74
2021/11/28 04:40:51;;;;;;;4.20;3.53;;;;;;;4.65;83.67;97267.69;5030558;28;20278;-72
2021/11/28 04:43:17;;;;;;;4.68;4.10;;;;;;;4.53;85.00;97271.22;5030708;28;20230;-75
2021/11/28 04:45:44;;;;;;;4.90;4.05;;;;;;;4.78;84.78;97278.31;5030889;28;20225;-73
2021/11/28 04:48:11;;;;;;;4.75;4.10;;;;;;;4.79;83.81;97274.69;5037435;28;20233;-73
2021/11/28 04:50:38;;;;;;;4.78;4.20;;;;;;;4.80;84.21;97282.56;5030951;28;20267;-73
2021/11/28 04:53:05;;;;;;;11.00;8.73;;;;;;;4.88;83.66;97274.00;5030401;28;20230;-73
2021/11/28 04:55:34;;;;;;;4.43;4.03;;;;;;;4.72;84.00;97273.41;5030500;28;20278;-73
2021/11/28 04:58:00;;;;;;;4.50;4.10;;;;;;;4.73;83.97;97281.31;5030309;28;20223;-73
2021/11/28 05:00:28;;;;;;;5.82;3.92;;;;;;;4.58;84.92;97274.41;5031459;28;20278;-74
2021/11/28 05:02:56;;;;;;;4.68;3.72;;;;;;;4.48;85.50;97268.03;5033309;28;20270;-75
2021/11/28 05:05:23;;;;;;;4.70;3.50;;;;;;;4.52;86.32;97272.16;5034124;28;20233;-74
2021/11/28 05:07:50;;;;;;;4.35;3.63;;;;;;;4.51;86.42;97265.16;5034419;28;20281;-73
2021/11/28 05:10:17;;;;;;;4.57;3.88;;;;;;;4.42;86.06;97268.47;5033992;28;20289;-74
2021/11/28 05:12:45;;;;;;;6.40;4.07;;;;;;;4.44;87.35;97267.38;5034183;28;20190;-74
2021/11/28 05:15:12;;;;;;;4.15;3.50;;;;;;;4.55;86.54;97267.47;5034342;28;20493;-74
2021/11/28 05:17:39;;;;;;;5.28;3.90;;;;;;;4.67;85.19;97263.09;5033231;28;20264;-74
2021/11/28 05:20:07;;;;;;;4.40;3.97;;;;;;;4.58;86.12;97277.06;5034275;28;20242;-74
2021/11/28 05:22:34;;;;;;;4.32;3.25;;;;;;;4.37;86.74;97274.13;5033308;28;20197;-73
2021/11/28 05:25:01;;;;;;;6.70;3.65;;;;;;;4.57;85.87;97265.56;5033586;28;20537;-74
2021/11/28 05:27:28;;;;;;;3.30;3.00;;;;;;;4.49;86.14;97269.72;5033554;28;20278;-73
2021/11/28 05:29:56;;;;;;;4.00;3.60;;;;;;;4.57;84.54;97264.72;5026451;28;20253;-74
2021/11/28 05:32:23;;;;;;;3.50;3.20;;;;;;;4.58;83.90;97269.91;5033408;28;20202;-74
2021/11/28 05:34:50;;;;;;;3.70;3.40;;;;;;;4.45;85.15;97270.91;5033715;28;20190;-74
2021/11/28 05:37:16;;;;;;;7.10;4.30;;;;;;;4.51;85.51;97270.47;5033856;28;20222;-74
2021/11/28 05:39:43;;;;;;;3.85;2.90;;;;;;;4.56;85.70;97274.50;5033059;28;20202;-74
2021/11/28 05:42:10;;;;;;;3.92;3.40;;;;;;;4.48;85.43;97276.03;5033793;28;20210;-74
2021/11/28 05:44:37;;;;;;;3.80;3.40;;;;;;;4.61;85.19;97276.84;5033319;28;20226;-74
2021/11/28 05:47:06;;;;;;;5.15;3.60;;;;;;;4.51;85.20;97281.97;5033369;28;20253;-74
2021/11/28 05:49:32;;;;;;;4.95;3.88;;;;;;;4.42;86.02;97276.47;5033028;28;20297;-74
2021/11/28 05:51:59;;;;;;;4.28;3.60;;;;;;;4.53;85.40;97271.22;5033298;28;20270;-74
2021/11/28 05:54:26;;;;;;;9.85;6.28;;;;;;;4.60;85.71;97281.31;5032652;28;20281;-74
2021/11/28 05:56:53;;;;;;;4.55;3.70;;;;;;;4.64;85.29;97275.81;5033672;28;20691;-74
2021/11/28 05:59:19;;;;;;;4.30;3.53;;;;;;;4.51;85.50;97281.13;5033421;28;20273;-74
2021/11/28 06:01:46;;;;;;;7.15;3.72;;;;;;;4.56;85.59;97281.66;5029098;28;20281;-74
2021/11/28 06:04:14;;;;;;;4.13;3.72;;;;;;;4.55;86.04;97279.97;5033409;28;20596;-74
2021/11/28 06:06:41;;;;;;;5.07;4.47;;;;;;;4.58;86.21;97279.75;5033170;28;20274;-74
2021/11/28 06:09:07;;;;;;;5.30;4.38;;;;;;;4.71;85.87;97279.72;5032408;28;20317;-74
2021/11/28 06:11:34;;;;;;;5.50;4.45;;;;;;;4.65;85.09;97281.00;5032285;28;20225;-74
2021/11/28 06:14:01;;;;;;;5.50;4.47;;;;;;;4.63;84.33;97280.25;5032493;28;20218;-74
2021/11/28 06:16:27;;;;;;;6.13;4.43;;;;;;;4.68;84.68;97282.59;5032646;28;20206;-73
2021/11/28 06:18:54;;;;;;;6.72;4.50;;;;;;;4.64;85.24;97286.47;5031847;28;20245;-73
2021/11/28 06:21:22;;;;;;;6.25;4.90;;;;;;;4.52;85.14;97280.16;5032524;28;20222;-74
2021/11/28 06:23:49;;;;;;;5.45;4.53;;;;;;;4.64;84.73;97286.47;5032816;28;20600;-74
2021/11/28 06:26:16;;;;;;;5.50;4.97;;;;;;;4.58;85.46;97293.91;5032444;28;20273;-74
2021/11/28 06:28:43;;;;;;;4.75;3.80;;;;;;;4.58;85.89;97285.06;5033060;28;20555;-74
2021/11/28 06:31:10;;;;;;;6.78;5.00;;;;;;;4.60;85.67;97277.81;5032487;28;20286;-73
2021/11/28 06:33:36;;;;;;;5.95;4.25;;;;;;;4.49;86.43;97283.06;5024811;28;20223;-73
2021/11/28 06:36:04;;;;;;;5.72;4.80;;;;;;;4.63;85.60;97282.91;5032327;28;20645;-73
2021/11/28 06:38:34;;;;;;;4.90;4.40;;;;;;;4.65;85.11;97286.34;5032063;28;20278;-73
2021/11/28 06:41:00;;;;;;;7.50;4.47;;;;;;;4.61;85.24;97287.50;5032272;28;20268;-73
2021/11/28 06:43:27;;;;;;;5.53;4.55;;;;;;;4.62;85.16;97283.91;5032186;28;20285;-74
2021/11/28 06:45:54;;;;;;;6.03;4.63;;;;;;;4.70;84.92;97288.66;5032555;28;20635;-72
2021/11/28 06:48:21;;;;;;;5.95;4.38;;;;;;;4.62;85.44;97291.88;5031908;28;20278;-74
2021/11/28 06:50:49;;;;;;;6.47;4.78;;;;;;;4.61;85.54;97287.50;5032193;28;20319;-73
2021/11/28 06:53:16;;;;;;;5.15;4.63;;;;;;;4.74;84.37;97293.69;5031887;28;20213;-75
2021/11/28 06:55:44;;;;;;;6.90;4.88;;;;;;;4.81;84.64;97289.59;5032317;28;20274;-75
2021/11/28 06:58:10;;;;;;;6.30;4.55;;;;;;;4.78;83.58;97287.16;5032104;28;20277;-75
2021/11/28 07:00:37;;;;;;;4.88;4.00;;;;;;;4.77;83.04;97285.47;5032035;28;20271;-75
2021/11/28 07:03:04;;;;;;;4.55;4.10;;;;;;;4.38;84.52;97286.47;5031747;28;20269;-74
2021/11/28 07:05:31;;;;;;;4.80;4.30;;;;;;;4.32;86.00;97281.56;5031788;28;20352;-75
2021/11/28 07:07:58;;;;;;;5.68;4.43;;;;;;;4.35;86.17;97290.19;5031502;28;20261;-74
2021/11/28 07:10:24;;;;;;;7.15;5.10;;;;;;;4.48;85.86;97308.00;5030664;28;20285;-74
2021/11/28 07:12:52;;;;;;;5.95;4.50;;;;;;;4.24;86.17;97298.09;5031897;28;20198;-74
2021/11/28 07:15:19;;;;;;;4.63;4.15;;;;;;;4.35;86.15;97308.00;5031548;28;20285;-74
2021/11/28 07:17:46;;;;;;;4.90;4.25;;;;;;;4.44;85.59;97311.84;5031723;28;20183;-74
2021/11/28 07:20:13;;;;;;;4.97;4.18;;;;;;;4.49;85.57;97312.38;5031730;28;21632;-73
2021/11/28 07:22:39;;;;;;;4.70;4.20;;;;;;;4.39;85.89;97299.69;5031423;28;20226;-74
2021/11/28 07:25:07;;;;;;;6.05;3.70;;;;;;;4.41;86.39;97304.03;5031268;28;20614;-74
2021/11/28 07:27:33;;;;;;;4.80;4.40;;;;;;;4.23;85.77;97296.38;5031680;28;20222;-72
2021/11/28 07:30:03;;;;;;;4.90;4.00;;;;;;;4.24;86.50;97303.41;5031343;28;20332;-74
2021/11/28 07:32:30;;;;;;;4.50;4.10;;;;;;;4.40;85.83;97305.88;5031799;28;20213;-74
2021/11/28 07:34:56;;;;;;;5.05;4.55;;;;;;;4.49;84.53;97315.03;5031097;28;20233;-74
2021/11/28 07:37:23;;;;;;;4.05;3.63;;;;;;;4.46;84.96;97308.09;5031217;28;20286;-73
2021/11/28 07:39:49;;;;;;;4.70;3.80;;;;;;;4.66;84.86;97306.72;5031464;28;20684;-73
2021/11/28 07:42:16;;;;;;;4.18;3.63;;;;;;;4.64;84.08;97308.63;5023768;28;20701;-74
2021/11/28 07:44:43;;;;;;;6.05;4.20;;;;;;;4.80;84.21;97309.25;5031306;28;20336;-74
2021/11/28 07:47:11;;;;;;;4.85;3.80;;;;;;;4.88;84.20;97315.84;5031309;28;20679;-74
2021/11/28 07:49:38;;;;;;;5.05;4.03;;;;;;;4.81;84.11;97320.75;5039097;28;20716;-73
2021/11/28 07:52:05;;;;;;;4.72;3.90;;;;;;;4.79;84.58;97326.22;5033576;28;20268;-73
2021/11/28 07:54:32;;;;;;;4.20;3.80;;;;;;;4.86;84.35;97326.63;5036639;28;20273;-74
2021/11/28 07:56:59;;;;;;;4.00;3.35;;;;;;;5.03;82.63;97324.56;5031089;28;20526;-74
2021/11/28 07:59:26;;;;;;;4.75;4.00;;;;;;;4.81;82.91;97334.06;5031353;28;20214;-74
2021/11/28 08:01:52;;;;;;;9.70;3.70;;;;;;;4.94;82.54;97326.06;5031055;28;20201;-74
2021/11/28 08:04:20;;;;;;;5.47;4.57;;;;;;;4.89;83.72;97334.41;5030824;28;20286;-73
2021/11/28 08:06:47;;;;;;;4.50;4.10;;;;;;;4.79;84.04;97334.22;5031062;28;20222;-73
2021/11/28 08:09:14;;;;;;;4.70;3.97;;;;;;;4.90;83.74;97340.56;5030470;28;20678;-72
2021/11/28 08:11:40;;;;;;;5.50;4.22;;;;;;;4.85;83.57;97340.91;5031165;28;20293;-72
2021/11/28 08:14:07;;;;;;;5.88;5.35;;;;;;;4.99;83.97;97345.25;5031437;28;20248;-74
2021/11/28 08:16:34;;;;;;;6.07;4.78;;;;;;;5.03;82.02;97344.06;5031047;28;20290;-75
2021/11/28 08:19:01;;;;;;;4.63;4.20;;;;;;;5.00;81.46;97341.63;5018320;28;20612;-74
2021/11/28 08:21:29;;;;;;;5.38;4.00;;;;;;;5.02;81.73;97350.38;5011578;28;20597;-74
2021/11/28 08:23:56;;;;;;;4.90;4.40;;;;;;;5.03;83.07;97352.06;5029001;28;20326;-74
2021/11/28 08:26:23;;;;;;;5.45;4.95;;;;;;;4.93;83.18;97349.22;5029605;28;20230;-74
2021/11/28 08:28:51;;;;;;;7.43;5.93;;;;;;;4.90;83.42;97346.75;5030121;28;20233;-74
2021/11/28 08:31:18;;;;;;;6.97;5.78;;;;;;;5.04;82.18;97351.09;5030196;28;20712;-74
2021/11/28 08:33:44;;;;;;;6.70;5.22;;;;;;;5.11;82.63;97359.50;5030072;28;20281;-74
2021/11/28 08:36:11;;;;;;;5.43;4.70;;;;;;;5.00;82.39;97355.81;5031886;28;20274;-75
2021/11/28 08:38:42;;;;;;;5.18;4.68;;;;;;;4.87;83.49;97362.13;5034258;28;20249;-73
2021/11/28 08:41:10;;;;;;;4.78;4.07;;;;;;;4.76;82.12;97357.56;5034304;28;20179;-74
2021/11/28 08:43:37;;;;;;;8.38;5.50;;;;;;;4.71;82.47;97357.88;5033272;28;20286;-75
2021/11/28 08:46:04;;;;;;;5.57;4.82;;;;;;;4.91;82.48;97363.63;5034177;28;20274;-74
2021/11/28 08:48:30;;;;;;;5.00;4.50;;;;;;;4.99;81.13;97367.44;5034628;28;20241;-74
2021/11/28 08:50:57;;;;;;;6.70;5.20;;;;;;;5.06;80.78;97367.00;5033216;28;20249;-73
2021/11/28 08:53:24;;;;;;;5.22;4.55;;;;;;;4.88;81.70;97364.66;5034589;28;20582;-73
2021/11/28 08:55:52;;;;;;;5.35;4.85;;;;;;;4.58;83.66;97362.34;5033895;28;20277;-75
2021/11/28 08:58:19;;;;;;;6.85;5.10;;;;;;;4.49;84.66;97368.31;5033915;28;20234;-73
2021/11/28 09:00:45;;;;;;;5.45;4.88;;;;;;;4.20;85.38;97368.50;5033850;28;20698;-73
2021/11/28 09:03:12;;;;;;;5.30;4.65;;;;;;;4.48;85.24;97363.97;5034686;28;20617;-73
2021/11/28 09:05:39;;;;;;;6.85;4.38;;;;;;;4.48;85.29;97372.81;5034627;28;20641;-74
2021/11/28 09:08:05;;;;;;;5.22;4.47;;;;;;;4.52;85.04;97371.63;5034115;28;20325;-74
2021/11/28 09:10:32;;;;;;;6.10;4.72;;;;;;;4.43;85.40;97364.25;5036400;28;20213;-75
2021/11/28 09:13:00;;;;;;;6.90;4.80;;;;;;;4.62;85.30;97368.34;5036211;28;20607;-74
2021/11/28 09:15:28;;;;;;;6.60;4.80;;;;;;;4.67;84.09;97377.69;5034526;28;20229;-74
2021/11/28 09:17:58;;;;;;;5.97;4.53;;;;;;;4.57;83.69;97377.50;5034848;28;20194;-74
2021/11/28 09:20:25;;;;;;;6.43;4.78;;;;;;;4.54;84.61;97379.50;5035041;28;20195;-72
2021/11/28 09:25:37;;;;;;;6.50;5.55;;;;;;;4.86;84.24;97379.97;5035407;28;20197;-76
2021/11/28 09:28:06;;;;;;;6.88;5.07;;;;;;;5.05;82.49;97390.16;5035025;28;20230;-75
2021/11/28 09:30:34;;;;;;;7.22;5.43;;;;;;;5.04;82.42;97380.44;5034355;28;20655;-75
2021/11/28 09:33:03;;;;;;;6.55;5.78;;;;;;;5.16;82.17;97387.59;5035763;28;20190;-74
2021/11/28 09:35:30;;;;;;;7.05;5.85;;;;;;;5.14;80.62;97381.50;5035169;28;20237;-74
2021/11/28 09:37:57;;;;;;;6.70;5.63;;;;;;;5.07;80.91;97385.56;5035604;28;20270;-75
2021/11/28 09:40:25;;;;;;;6.70;5.80;;;;;;;5.05;81.99;97383.97;5035061;28;20628;-75
2021/11/28 09:42:54;;;;;;;11.25;8.73;;;;;;;5.28;81.67;97391.19;5035351;28;20572;-75
2021/11/28 09:45:23;;;;;;;8.15;5.80;;;;;;;5.33;81.71;97388.19;5034480;28;20649;-73
2021/11/28 09:47:51;;;;;;;8.02;6.10;;;;;;;5.40;80.60;97384.09;5034889;28;20557;-75
2021/11/28 09:50:18;;;;;;;7.63;6.50;;;;;;;5.40;80.69;97389.44;5034220;28;20238;-75
2021/11/28 09:52:46;;;;;;;6.95;6.20;;;;;;;5.43;80.73;97382.06;5034629;28;20237;-75
2021/11/28 09:55:14;;;;;;;10.95;7.30;;;;;;;5.42;81.28;97385.69;5034290;28;20281;-75
2021/11/28 09:57:42;;;;;;;8.23;6.45;;;;;;;5.45;80.75;97389.97;5034801;28;20198;-75
2021/11/28 10:00:11;;;;;;;6.70;5.72;;;;;;;5.53;78.98;97384.06;5034083;28;20214;-76
2021/11/28 10:02:40;;;;;;;10.13;6.53;;;;;;;5.42;79.62;97385.69;5034186;28;20195;-75
2021/11/28 10:05:10;;;;;;;6.28;5.40;;;;;;;5.36;80.43;97387.94;5033649;28;20274;-75
2021/11/28 10:07:40;;;;;;;7.65;6.30;;;;;;;5.40;80.47;97392.09;5027792;28;20308;-75
2021/11/28 10:10:08;;;;;;;8.77;6.78;;;;;;;5.54;79.08;97383.09;5034132;28;20210;-75
2021/11/28 10:12:37;;;;;;;8.18;6.38;;;;;;;5.48;79.95;97384.41;5031368;28;20195;-75
2021/11/28 10:15:06;;;;;;;8.60;6.82;;;;;;;5.28;79.60;97382.34;5034611;28;20198;-75
2021/11/28 10:17:36;;;;;;;9.77;6.88;;;;;;;5.48;79.75;97379.06;5034420;28;20548;-75
2021/11/28 10:20:08;;;;;;;8.70;7.22;;;;;;;5.65;79.69;97372.50;5034557;28;20190;-75
2021/11/28 10:22:34;;;;;;;8.38;6.90;;;;;;;5.61;79.61;97371.03;5027235;28;20274;-75
2021/11/28 10:25:04;;;;;;;8.93;7.95;;;;;;;5.58;80.43;97374.75;5034452;28;20281;-74
2021/11/28 10:27:34;;;;;;;9.23;7.03;;;;;;;5.49;80.69;97371.91;5034187;28;20252;-75
2021/11/28 10:30:00;;;;;;;9.25;7.00;;;;;;;5.55;80.75;97369.66;5030841;28;20281;-75
2021/11/28 10:32:27;;;;;;;14.32;7.47;;;;;;;5.74;80.24;97363.78;5033645;28;20278;-75
2021/11/28 10:34:54;;;;;;;9.48;7.22;;;;;;;5.88;77.64;97369.94;5033663;28;20190;-75
2021/11/28 10:37:24;;;;;;;9.00;6.97;;;;;;;5.87;77.40;97369.09;5033970;28;20289;-75
2021/11/28 10:39:54;;;;;;;8.50;7.03;;;;;;;5.72;78.30;97376.44;5034283;28;20187;-75
2021/11/28 10:42:22;;;;;;;12.45;7.88;;;;;;;5.72;79.48;97371.09;5033851;28;20679;-75
2021/11/28 10:45:08;;;;;;;9.55;7.22;;;;;;;5.79;79.60;97366.16;5034007;28;20215;-75
2021/11/28 10:47:38;;;;;;;13.32;9.55;;;;;;;5.83;79.28;97367.59;5027655;28;20289;-75
2021/11/28 10:50:10;;;;;;;10.13;7.95;;;;;;;5.69;80.49;97371.31;5033081;28;20281;-75
2021/11/28 10:52:39;;;;;;;14.90;11.15;;;;;;;5.70;81.20;97372.16;5038917;28;20655;-75
2021/11/28 10:55:19;;;;;;;10.40;8.07;;;;;;;5.64;81.53;97365.47;5035898;28;20581;-74
2021/11/28 10:57:46;;;;;;;10.40;8.38;;;;;;;5.50;81.59;97366.47;5033401;28;20715;-74
2021/11/28 11:00:14;;;;;;;14.38;9.18;;;;;;;5.44;82.41;97369.59;5032987;28;20201;-74
2021/11/28 11:02:42;;;;;;;10.65;8.00;;;;;;;5.66;81.77;97371.53;5033788;28;20293;-73
2021/11/28 11:05:12;;;;;;;13.32;10.00;;;;;;;5.77;81.44;97368.94;5033219;28;20202;-75
2021/11/28 11:07:46;;;;;;;12.55;9.68;;;;;;;5.70;81.71;97365.00;5032768;28;20262;-73
2021/11/28 11:10:18;;;;;;;12.63;8.10;;;;;;;5.55;82.16;97368.81;5032845;28;20207;-73
2021/11/28 11:12:44;;;;;;;15.23;8.85;;;;;;;5.66;82.02;97370.69;5027602;28;20234;-74
2021/11/28 11:15:15;;;;;;;10.38;8.20;;;;;;;5.64;81.03;97368.97;5032499;28;20281;-73
2021/11/28 11:17:56;;;;;;;23.60;8.45;;;;;;;5.71;80.97;97363.19;5032922;28;20550;-74
2021/11/28 11:20:26;;;;;;;12.02;8.55;;;;;;;5.84;80.65;97364.00;5033378;28;20201;-74
2021/11/28 11:22:54;;;;;;;12.95;9.40;;;;;;;5.91;80.21;97359.88;5033206;28;20202;-72
2021/11/28 11:25:30;;;;;;;13.02;9.25;;;;;;;5.96;80.23;97354.22;5033321;28;20201;-75
2021/11/28 11:28:08;;;;;;;11.20;8.48;;;;;;;6.16;77.90;97368.75;5032720;28;20187;-75
2021/11/28 11:30:35;;;;;;;9.90;8.43;;;;;;;6.09;78.27;97363.03;5033023;28;20623;-73
2021/11/28 11:33:01;;;;;;;12.85;9.30;;;;;;;6.09;78.10;97355.00;5032649;28;20290;-76
2021/11/28 11:35:31;;;;;;;12.38;9.00;;;;;;;6.16;79.17;97363.41;5032783;28;20205;-73
2021/11/28 11:38:01;;;;;;;11.30;9.05;;;;;;;6.04;79.07;97368.72;5032009;28;20199;-75
2021/11/28 11:40:28;;;;;;;10.43;8.50;;;;;;;5.95;79.09;97364.06;5032332;28;20604;-75
2021/11/28 11:42:55;;;;;;;9.50;7.90;;;;;;;5.91;79.57;97369.72;5031735;28;20230;-75